sensor_id;sensor_type;location;lat;lon;timestamp;pressure;altitude;pressure_sealevel;temperature;humidity
39739;BME280;25422;48.286;8.484;2023-03-25T00:00:17;93574.66;;;4.16;100.00
39739;BME280;25422;48.286;8.484;2023-03-25T00:02:48;93568.03;;;4.03;100.00
39739;BME280;25422;48.286;8.484;2023-03-25T00:05:15;93581.69;;;3.96;100.00
39739;BME280;25422;48.286;8.484;2023-03-25T00:07:45;93580.50;;;3.90;100.00
39739;BME280;25422;48.286;8.484;2023-03-25T00:10:13;93568.97;;;3.84;100.00
39739;BME280;25422;48.286;8.484;2023-03-25T00:12:39;93571.25;;;3.87;100.00
39739;BME280;25422;48.286;8.484;2023-03-25T00:15:06;93556.56;;;3.88;100.00
39739;BME280;25422;48.286;8.484;2023-03-25T00:17:31;93560.03;;;3.97;100.00
39739;BME280;25422;48.286;8.484;2023-03-25T00:19:57;93544.81;;;3.94;100.00
39739;BME280;25422;48.286;8.484;2023-03-25T00:22:25;93550.13;;;3.92;100.00
39739;BME280;25422;48.286;8.484;2023-03-25T00:24:51;93552.84;;;3.91;100.00
39739;BME280;25422;48.286;8.484;2023-03-25T00:27:17;93543.41;;;3.99;100.00
39739;BME280;25422;48.286;8.484;2023-03-25T00:29:43;93547.41;;;4.12;100.00
39739;BME280;25422;48.286;8.484;2023-03-25T00:32:09;93545.22;;;4.17;100.00
39739;BME280;25422;48.286;8.484;2023-03-25T00:34:35;93537.94;;;4.20;100.00
39739;BME280;25422;48.286;8.484;2023-03-25T00:37:07;93529.22;;;4.21;100.00
39739;BME280;25422;48.286;8.484;2023-03-25T00:39:33;93527.31;;;4.24;100.00
39739;BME280;25422;48.286;8.484;2023-03-25T00:41:59;93525.38;;;4.26;100.00
39739;BME280;25422;48.286;8.484;2023-03-25T00:44:27;93521.38;;;4.31;100.00
39739;BME280;25422;48.286;8.484;2023-03-25T00:46:53;93517.03;;;4.32;100.00
39739;BME280;25422;48.286;8.484;2023-03-25T00:49:18;93515.94;;;4.34;100.00
39739;BME280;25422;48.286;8.484;2023-03-25T00:51:44;93517.41;;;4.37;100.00
39739;BME280;25422;48.286;8.484;2023-03-25T00:54:09;93531.84;;;4.39;100.00
39739;BME280;25422;48.286;8.484;2023-03-25T00:56:36;93539.31;;;4.43;100.00
39739;BME280;25422;48.286;8.484;2023-03-25T00:59:01;93540.66;;;4.47;100.00
39739;BME280;25422;48.286;8.484;2023-03-25T01:01:27;93542.13;;;4.49;100.00
39739;BME280;25422;48.286;8.484;2023-03-25T01:03:55;93550.63;;;4.42;100.00
39739;BME280;25422;48.286;8.484;2023-03-25T01:06:34;93556.28;;;4.09;100.00
39739;BME280;25422;48.286;8.484;2023-03-25T01:09:01;93553.97;;;3.88;100.00
39739;BME280;25422;48.286;8.484;2023-03-25T01:11:30;93544.38;;;3.70;100.00
39739;BME280;25422;48.286;8.484;2023-03-25T01:14:00;93571.44;;;3.38;100.00
39739;BME280;25422;48.286;8.484;2023-03-25T01:16:27;93574.72;;;3.31;100.00
39739;BME280;25422;48.286;8.484;2023-03-25T01:18:54;93547.50;;;3.27;100.00
39739;BME280;25422;48.286;8.484;2023-03-25T01:21:20;93516.75;;;3.33;100.00
39739;BME280;25422;48.286;8.484;2023-03-25T01:23:45;93527.47;;;3.38;100.00
39739;BME280;25422;48.286;8.484;2023-03-25T01:26:11;93526.78;;;3.46;100.00
39739;BME280;25422;48.286;8.484;2023-03-25T01:28:39;93534.53;;;3.46;100.00
39739;BME280;25422;48.286;8.484;2023-03-25T01:31:06;93530.84;;;3.49;100.00
39739;BME280;25422;48.286;8.484;2023-03-25T01:33:33;93511.69;;;3.42;100.00
39739;BME280;25422;48.286;8.484;2023-03-25T01:35:59;93503.66;;;3.35;100.00
39739;BME280;25422;48.286;8.484;2023-03-25T01:38:25;93506.97;;;3.27;100.00
39739;BME280;25422;48.286;8.484;2023-03-25T01:40:52;93510.13;;;3.21;100.00
39739;BME280;25422;48.286;8.484;2023-03-25T01:43:19;93503.75;;;3.15;100.00
39739;BME280;25422;48.286;8.484;2023-03-25T01:45:44;93501.19;;;3.06;100.00
39739;BME280;25422;48.286;8.484;2023-03-25T01:48:17;93503.69;;;2.97;100.00
39739;BME280;25422;48.286;8.484;2023-03-25T01:50:48;93498.31;;;3.09;100.00
39739;BME280;25422;48.286;8.484;2023-03-25T01:53:15;93496.28;;;3.02;100.00
39739;BME280;25422;48.286;8.484;2023-03-25T01:55:42;93495.88;;;3.07;100.00
39739;BME280;25422;48.286;8.484;2023-03-25T01:58:12;93495.44;;;3.12;100.00
39739;BME280;25422;48.286;8.484;2023-03-25T02:00:41;93491.38;;;3.19;100.00
39739;BME280;25422;48.286;8.484;2023-03-25T02:03:08;93480.84;;;3.30;100.00
39739;BME280;25422;48.286;8.484;2023-03-25T02:05:47;93490.34;;;3.40;100.00
39739;BME280;25422;48.286;8.484;2023-03-25T02:08:13;93484.06;;;3.42;100.00
39739;BME280;25422;48.286;8.484;2023-03-25T02:10:44;93483.31;;;3.50;100.00
39739;BME280;25422;48.286;8.484;2023-03-25T02:13:10;93479.63;;;3.52;100.00
39739;BME280;25422;48.286;8.484;2023-03-25T02:24:20;93488.84;;;3.65;100.00
39739;BME280;25422;48.286;8.484;2023-03-25T02:32:42;93528.41;;;3.75;100.00
39739;BME280;25422;48.286;8.484;2023-03-25T02:38:15;93490.63;;;3.64;100.00
39739;BME280;25422;48.286;8.484;2023-03-25T02:43:22;93492.66;;;3.61;100.00
39739;BME280;25422;48.286;8.484;2023-03-25T02:45:53;93489.44;;;3.59;100.00
39739;BME280;25422;48.286;8.484;2023-03-25T02:48:24;93489.97;;;3.52;100.00
39739;BME280;25422;48.286;8.484;2023-03-25T02:50:54;93497.34;;;3.57;100.00
39739;BME280;25422;48.286;8.484;2023-03-25T02:53:32;93524.84;;;3.58;100.00
39739;BME280;25422;48.286;8.484;2023-03-25T02:56:05;93518.41;;;3.62;100.00
39739;BME280;25422;48.286;8.484;2023-03-25T02:58:33;93504.66;;;3.62;100.00
39739;BME280;25422;48.286;8.484;2023-03-25T03:01:00;93501.09;;;3.63;100.00
39739;BME280;25422;48.286;8.484;2023-03-25T03:03:26;93505.03;;;3.67;100.00
39739;BME280;25422;48.286;8.484;2023-03-25T03:05:59;93500.81;;;3.66;100.00
39739;BME280;25422;48.286;8.484;2023-03-25T03:11:28;93515.47;;;3.75;100.00
39739;BME280;25422;48.286;8.484;2023-03-25T03:19:51;93498.63;;;3.71;100.00
39739;BME280;25422;48.286;8.484;2023-03-25T03:25:26;93511.69;;;3.69;100.00
39739;BME280;25422;48.286;8.484;2023-03-25T03:33:52;93500.66;;;3.67;100.00
39739;BME280;25422;48.286;8.484;2023-03-25T03:36:21;93504.88;;;3.68;100.00
39739;BME280;25422;48.286;8.484;2023-03-25T03:38:52;93510.06;;;3.68;100.00
39739;BME280;25422;48.286;8.484;2023-03-25T03:41:22;93518.13;;;3.65;100.00
39739;BME280;25422;48.286;8.484;2023-03-25T03:44:08;93516.19;;;3.67;100.00
39739;BME280;25422;48.286;8.484;2023-03-25T03:47:20;93521.66;;;3.64;100.00
39739;BME280;25422;48.286;8.484;2023-03-25T03:49:55;93525.50;;;3.60;100.00
39739;BME280;25422;48.286;8.484;2023-03-25T03:52:26;93523.28;;;3.65;100.00
39739;BME280;25422;48.286;8.484;2023-03-25T03:55:04;93529.72;;;3.61;100.00
39739;BME280;25422;48.286;8.484;2023-03-25T03:57:41;93525.59;;;3.68;100.00
39739;BME280;25422;48.286;8.484;2023-03-25T04:03:00;93533.41;;;3.59;100.00
39739;BME280;25422;48.286;8.484;2023-03-25T04:05:29;93533.00;;;3.53;100.00
39739;BME280;25422;48.286;8.484;2023-03-25T04:10:39;93537.22;;;3.54;100.00
39739;BME280;25422;48.286;8.484;2023-03-25T04:13:11;93536.69;;;3.51;100.00
39739;BME280;25422;48.286;8.484;2023-03-25T04:15:39;93534.69;;;3.45;100.00
39739;BME280;25422;48.286;8.484;2023-03-25T04:18:05;93533.34;;;3.41;100.00
39739;BME280;25422;48.286;8.484;2023-03-25T04:20:32;93537.16;;;3.36;100.00
39739;BME280;25422;48.286;8.484;2023-03-25T04:22:59;93532.09;;;3.35;100.00
39739;BME280;25422;48.286;8.484;2023-03-25T04:25:25;93535.00;;;3.32;100.00
39739;BME280;25422;48.286;8.484;2023-03-25T04:27:51;93524.69;;;3.22;100.00
39739;BME280;25422;48.286;8.484;2023-03-25T04:30:18;93524.44;;;3.15;100.00
39739;BME280;25422;48.286;8.484;2023-03-25T04:32:45;93524.44;;;3.15;100.00
39739;BME280;25422;48.286;8.484;2023-03-25T04:35:15;93518.47;;;3.15;100.00
39739;BME280;25422;48.286;8.484;2023-03-25T04:37:42;93531.50;;;3.13;100.00
39739;BME280;25422;48.286;8.484;2023-03-25T04:40:14;93521.69;;;3.17;100.00
39739;BME280;25422;48.286;8.484;2023-03-25T04:42:44;93517.06;;;3.20;100.00
39739;BME280;25422;48.286;8.484;2023-03-25T04:45:12;93525.38;;;3.14;100.00
39739;BME280;25422;48.286;8.484;2023-03-25T04:47:44;93520.75;;;3.18;100.00
39739;BME280;25422;48.286;8.484;2023-03-25T04:50:23;93534.72;;;3.25;100.00
39739;BME280;25422;48.286;8.484;2023-03-25T04:52:50;93530.66;;;3.23;100.00
39739;BME280;25422;48.286;8.484;2023-03-25T04:55:17;93530.00;;;3.20;100.00
39739;BME280;25422;48.286;8.484;2023-03-25T04:57:45;93554.75;;;3.23;100.00
39739;BME280;25422;48.286;8.484;2023-03-25T05:00:12;93565.47;;;3.28;100.00
39739;BME280;25422;48.286;8.484;2023-03-25T05:02:45;93558.13;;;3.33;100.00
39739;BME280;25422;48.286;8.484;2023-03-25T05:05:15;93563.03;;;3.27;100.00
39739;BME280;25422;48.286;8.484;2023-03-25T05:07:45;93541.84;;;3.23;100.00
39739;BME280;25422;48.286;8.484;2023-03-25T05:10:12;93543.34;;;3.06;100.00
39739;BME280;25422;48.286;8.484;2023-03-25T05:12:38;93532.75;;;2.99;100.00
39739;BME280;25422;48.286;8.484;2023-03-25T05:15:03;93525.84;;;3.00;100.00
39739;BME280;25422;48.286;8.484;2023-03-25T05:17:29;93527.06;;;2.96;100.00
39739;BME280;25422;48.286;8.484;2023-03-25T05:19:55;93536.28;;;2.98;100.00
39739;BME280;25422;48.286;8.484;2023-03-25T05:22:21;93547.59;;;2.97;100.00
39739;BME280;25422;48.286;8.484;2023-03-25T05:24:47;93544.59;;;3.02;100.00
39739;BME280;25422;48.286;8.484;2023-03-25T05:27:12;93548.66;;;3.04;100.00
39739;BME280;25422;48.286;8.484;2023-03-25T05:29:38;93553.28;;;3.11;100.00
39739;BME280;25422;48.286;8.484;2023-03-25T05:32:03;93566.34;;;3.09;100.00
39739;BME280;25422;48.286;8.484;2023-03-25T05:34:29;93570.56;;;3.10;100.00
39739;BME280;25422;48.286;8.484;2023-03-25T05:36:55;93564.97;;;3.15;100.00
39739;BME280;25422;48.286;8.484;2023-03-25T05:39:20;93569.75;;;3.10;100.00
39739;BME280;25422;48.286;8.484;2023-03-25T05:41:46;93569.06;;;3.08;100.00
39739;BME280;25422;48.286;8.484;2023-03-25T05:44:12;93563.09;;;3.07;100.00
39739;BME280;25422;48.286;8.484;2023-03-25T05:46:39;93563.63;;;3.11;100.00
39739;BME280;25422;48.286;8.484;2023-03-25T05:49:05;93558.47;;;3.11;100.00
39739;BME280;25422;48.286;8.484;2023-03-25T05:51:33;93572.63;;;3.07;100.00
39739;BME280;25422;48.286;8.484;2023-03-25T05:54:02;93570.69;;;3.09;100.00
39739;BME280;25422;48.286;8.484;2023-03-25T05:56:32;93566.88;;;3.13;100.00
39739;BME280;25422;48.286;8.484;2023-03-25T05:58:58;93566.22;;;3.11;100.00
39739;BME280;25422;48.286;8.484;2023-03-25T06:01:23;93565.50;;;3.18;100.00
39739;BME280;25422;48.286;8.484;2023-03-25T06:03:49;93558.44;;;3.20;100.00
39739;BME280;25422;48.286;8.484;2023-03-25T06:06:15;93562.09;;;3.18;100.00
39739;BME280;25422;48.286;8.484;2023-03-25T06:08:48;93572.72;;;3.25;100.00
39739;BME280;25422;48.286;8.484;2023-03-25T06:11:15;93570.38;;;3.31;100.00
39739;BME280;25422;48.286;8.484;2023-03-25T06:13:42;93569.66;;;3.39;100.00
39739;BME280;25422;48.286;8.484;2023-03-25T06:16:14;93578.53;;;3.36;100.00
39739;BME280;25422;48.286;8.484;2023-03-25T06:18:43;93572.94;;;3.41;100.00
39739;BME280;25422;48.286;8.484;2023-03-25T06:21:09;93574.16;;;3.37;100.00
39739;BME280;25422;48.286;8.484;2023-03-25T06:23:35;93577.41;;;3.39;100.00
39739;BME280;25422;48.286;8.484;2023-03-25T06:26:03;93576.22;;;3.33;100.00
39739;BME280;25422;48.286;8.484;2023-03-25T06:28:29;93571.44;;;3.38;100.00
39739;BME280;25422;48.286;8.484;2023-03-25T06:30:55;93576.31;;;3.42;100.00
39739;BME280;25422;48.286;8.484;2023-03-25T06:33:21;93578.66;;;3.45;100.00
39739;BME280;25422;48.286;8.484;2023-03-25T06:35:47;93576.31;;;3.42;100.00
39739;BME280;25422;48.286;8.484;2023-03-25T06:38:19;93570.59;;;3.48;100.00
39739;BME280;25422;48.286;8.484;2023-03-25T06:41:04;93575.47;;;3.51;100.00
39739;BME280;25422;48.286;8.484;2023-03-25T06:43:32;93576.56;;;3.58;100.00
39739;BME280;25422;48.286;8.484;2023-03-25T06:46:15;93578.28;;;3.67;100.00
39739;BME280;25422;48.286;8.484;2023-03-25T06:48:59;93570.50;;;3.67;100.00
39739;BME280;25422;48.286;8.484;2023-03-25T06:51:25;93579.34;;;3.75;100.00
39739;BME280;25422;48.286;8.484;2023-03-25T06:53:50;93581.59;;;3.87;100.00
39739;BME280;25422;48.286;8.484;2023-03-25T06:56:15;93570.94;;;4.00;100.00
39739;BME280;25422;48.286;8.484;2023-03-25T06:58:41;93574.34;;;4.19;100.00
39739;BME280;25422;48.286;8.484;2023-03-25T07:01:06;93572.84;;;4.16;100.00
39739;BME280;25422;48.286;8.484;2023-03-25T07:03:32;93564.59;;;4.31;100.00
39739;BME280;25422;48.286;8.484;2023-03-25T07:05:58;93563.81;;;4.30;100.00
39739;BME280;25422;48.286;8.484;2023-03-25T07:08:23;93562.78;;;4.41;100.00
39739;BME280;25422;48.286;8.484;2023-03-25T07:10:49;93564.09;;;4.45;100.00
39739;BME280;25422;48.286;8.484;2023-03-25T07:13:14;93567.56;;;4.54;100.00
39739;BME280;25422;48.286;8.484;2023-03-25T07:15:40;93567.38;;;4.65;100.00
39739;BME280;25422;48.286;8.484;2023-03-25T07:18:05;93560.19;;;4.59;100.00
39739;BME280;25422;48.286;8.484;2023-03-25T07:20:31;93563.34;;;4.53;100.00
39739;BME280;25422;48.286;8.484;2023-03-25T07:22:56;93564.19;;;4.53;100.00
39739;BME280;25422;48.286;8.484;2023-03-25T07:25:22;93563.72;;;4.58;100.00
39739;BME280;25422;48.286;8.484;2023-03-25T07:27:47;93560.09;;;4.69;100.00
39739;BME280;25422;48.286;8.484;2023-03-25T07:30:16;93554.81;;;4.79;100.00
39739;BME280;25422;48.286;8.484;2023-03-25T07:32:43;93549.91;;;4.94;100.00
39739;BME280;25422;48.286;8.484;2023-03-25T07:35:09;93552.72;;;5.00;100.00
39739;BME280;25422;48.286;8.484;2023-03-25T07:37:35;93556.97;;;5.01;100.00
39739;BME280;25422;48.286;8.484;2023-03-25T07:40:00;93556.53;;;5.06;100.00
39739;BME280;25422;48.286;8.484;2023-03-25T07:42:26;93556.16;;;5.01;100.00
39739;BME280;25422;48.286;8.484;2023-03-25T07:45:10;93563.72;;;4.94;100.00
39739;BME280;25422;48.286;8.484;2023-03-25T07:47:38;93557.47;;;4.87;100.00
39739;BME280;25422;48.286;8.484;2023-03-25T07:50:03;93560.75;;;4.89;100.00
39739;BME280;25422;48.286;8.484;2023-03-25T07:52:29;93560.00;;;4.79;100.00
39739;BME280;25422;48.286;8.484;2023-03-25T07:54:54;93559.13;;;4.88;100.00
39739;BME280;25422;48.286;8.484;2023-03-25T07:57:20;93560.00;;;4.97;100.00
39739;BME280;25422;48.286;8.484;2023-03-25T07:59:45;93565.41;;;5.03;100.00
39739;BME280;25422;48.286;8.484;2023-03-25T08:02:12;93553.78;;;5.07;100.00
39739;BME280;25422;48.286;8.484;2023-03-25T08:04:38;93557.75;;;5.20;100.00
39739;BME280;25422;48.286;8.484;2023-03-25T08:07:03;93556.63;;;5.22;100.00
39739;BME280;25422;48.286;8.484;2023-03-25T08:09:28;93551.09;;;5.78;100.00
39739;BME280;25422;48.286;8.484;2023-03-25T08:11:54;93545.34;;;6.93;100.00
39739;BME280;25422;48.286;8.484;2023-03-25T08:14:19;93547.28;;;7.07;100.00
39739;BME280;25422;48.286;8.484;2023-03-25T08:16:45;93549.19;;;8.03;100.00
39739;BME280;25422;48.286;8.484;2023-03-25T08:19:10;93544.19;;;8.64;100.00
39739;BME280;25422;48.286;8.484;2023-03-25T08:21:36;93544.03;;;9.27;100.00
39739;BME280;25422;48.286;8.484;2023-03-25T08:24:02;93538.28;;;9.91;100.00
39739;BME280;25422;48.286;8.484;2023-03-25T08:26:30;93542.44;;;10.16;100.00
39739;BME280;25422;48.286;8.484;2023-03-25T08:28:56;93553.41;;;9.36;100.00
39739;BME280;25422;48.286;8.484;2023-03-25T08:31:23;93559.00;;;8.87;100.00
39739;BME280;25422;48.286;8.484;2023-03-25T08:33:48;93556.13;;;9.05;100.00
39739;BME280;25422;48.286;8.484;2023-03-25T08:36:14;93562.00;;;9.22;100.00
39739;BME280;25422;48.286;8.484;2023-03-25T08:38:45;93561.41;;;9.35;100.00
39739;BME280;25422;48.286;8.484;2023-03-25T08:41:10;93564.75;;;8.59;100.00
39739;BME280;25422;48.286;8.484;2023-03-25T08:43:36;93564.34;;;8.93;100.00
39739;BME280;25422;48.286;8.484;2023-03-25T08:46:02;93567.84;;;7.75;100.00
39739;BME280;25422;48.286;8.484;2023-03-25T08:48:27;93572.16;;;8.39;100.00
39739;BME280;25422;48.286;8.484;2023-03-25T08:50:53;93569.13;;;7.87;100.00
39739;BME280;25422;48.286;8.484;2023-03-25T08:53:18;93566.63;;;8.02;100.00
39739;BME280;25422;48.286;8.484;2023-03-25T08:55:43;93580.09;;;7.50;100.00
39739;BME280;25422;48.286;8.484;2023-03-25T08:58:09;93571.53;;;7.24;100.00
39739;BME280;25422;48.286;8.484;2023-03-25T09:00:36;93584.69;;;7.31;100.00
39739;BME280;25422;48.286;8.484;2023-03-25T09:03:03;93571.25;;;7.75;100.00
39739;BME280;25422;48.286;8.484;2023-03-25T09:05:28;93573.94;;;7.34;100.00
39739;BME280;25422;48.286;8.484;2023-03-25T09:07:54;93559.81;;;7.37;100.00
39739;BME280;25422;48.286;8.484;2023-03-25T09:10:19;93559.28;;;7.50;100.00
39739;BME280;25422;48.286;8.484;2023-03-25T09:12:45;93564.38;;;7.18;100.00
39739;BME280;25422;48.286;8.484;2023-03-25T09:15:11;93559.09;;;7.59;100.00
39739;BME280;25422;48.286;8.484;2023-03-25T09:17:37;93553.19;;;7.74;100.00
39739;BME280;25422;48.286;8.484;2023-03-25T09:20:03;93546.03;;;7.76;100.00
39739;BME280;25422;48.286;8.484;2023-03-25T09:22:30;93542.72;;;7.90;100.00
39739;BME280;25422;48.286;8.484;2023-03-25T09:24:55;93537.91;;;8.73;100.00
39739;BME280;25422;48.286;8.484;2023-03-25T09:27:21;93545.72;;;9.20;100.00
39739;BME280;25422;48.286;8.484;2023-03-25T09:29:46;93538.25;;;8.93;100.00
39739;BME280;25422;48.286;8.484;2023-03-25T09:32:11;93544.38;;;9.24;100.00
39739;BME280;25422;48.286;8.484;2023-03-25T09:34:38;93542.00;;;9.14;100.00
39739;BME280;25422;48.286;8.484;2023-03-25T09:37:03;93542.25;;;9.42;100.00
39739;BME280;25422;48.286;8.484;2023-03-25T09:39:29;93533.25;;;9.07;100.00
39739;BME280;25422;48.286;8.484;2023-03-25T09:47:21;93523.25;;;10.08;100.00
39739;BME280;25422;48.286;8.484;2023-03-25T09:49:51;93529.63;;;10.21;100.00
39739;BME280;25422;48.286;8.484;2023-03-25T09:52:24;93536.97;;;10.47;100.00
39739;BME280;25422;48.286;8.484;2023-03-25T09:54:55;93546.47;;;10.18;100.00
39739;BME280;25422;48.286;8.484;2023-03-25T09:57:26;93529.31;;;10.45;100.00
39739;BME280;25422;48.286;8.484;2023-03-25T09:59:55;93532.09;;;9.77;100.00
39739;BME280;25422;48.286;8.484;2023-03-25T10:02:58;93555.38;;;10.54;100.00
39739;BME280;25422;48.286;8.484;2023-03-25T10:08:42;93555.97;;;10.04;100.00
39739;BME280;25422;48.286;8.484;2023-03-25T10:11:18;93547.56;;;9.64;100.00
39739;BME280;25422;48.286;8.484;2023-03-25T10:13:47;93558.47;;;9.53;100.00
39739;BME280;25422;48.286;8.484;2023-03-25T10:16:18;93550.78;;;8.98;100.00
39739;BME280;25422;48.286;8.484;2023-03-25T10:19:04;93554.31;;;9.58;100.00
39739;BME280;25422;48.286;8.484;2023-03-25T10:24:20;93554.63;;;8.64;100.00
39739;BME280;25422;48.286;8.484;2023-03-25T10:29:37;93559.84;;;8.87;100.00
39739;BME280;25422;48.286;8.484;2023-03-25T10:32:16;93561.56;;;8.72;100.00
39739;BME280;25422;48.286;8.484;2023-03-25T10:34:51;93578.81;;;8.50;100.00
39739;BME280;25422;48.286;8.484;2023-03-25T10:37:25;93579.50;;;8.35;100.00
39739;BME280;25422;48.286;8.484;2023-03-25T10:40:18;93582.41;;;8.72;100.00
39739;BME280;25422;48.286;8.484;2023-03-25T10:43:02;93585.78;;;8.57;100.00
39739;BME280;25422;48.286;8.484;2023-03-25T10:45:31;93585.41;;;8.92;100.00
39739;BME280;25422;48.286;8.484;2023-03-25T10:48:09;93584.47;;;8.85;100.00
39739;BME280;25422;48.286;8.484;2023-03-25T10:50:38;93575.66;;;8.86;100.00
39739;BME280;25422;48.286;8.484;2023-03-25T10:53:04;93584.13;;;9.11;100.00
39739;BME280;25422;48.286;8.484;2023-03-25T10:55:34;93591.38;;;9.01;100.00
39739;BME280;25422;48.286;8.484;2023-03-25T10:58:03;93594.22;;;9.29;100.00
39739;BME280;25422;48.286;8.484;2023-03-25T11:00:29;93576.16;;;9.27;100.00
39739;BME280;25422;48.286;8.484;2023-03-25T11:02:55;93592.03;;;9.41;100.00
39739;BME280;25422;48.286;8.484;2023-03-25T11:05:24;93557.59;;;10.05;100.00
39739;BME280;25422;48.286;8.484;2023-03-25T11:07:55;93570.66;;;10.20;100.00
39739;BME280;25422;48.286;8.484;2023-03-25T11:10:27;93567.41;;;9.88;100.00
39739;BME280;25422;48.286;8.484;2023-03-25T11:12:54;93572.53;;;10.11;100.00
39739;BME280;25422;48.286;8.484;2023-03-25T11:15:25;93576.88;;;10.04;100.00
39739;BME280;25422;48.286;8.484;2023-03-25T11:20:29;93581.91;;;10.21;96.10
39739;BME280;25422;48.286;8.484;2023-03-25T11:23:03;93586.06;;;10.30;95.96
39739;BME280;25422;48.286;8.484;2023-03-25T11:25:35;93601.06;;;9.53;97.55
39739;BME280;25422;48.286;8.484;2023-03-25T11:28:10;93592.03;;;9.41;100.00
39739;BME280;25422;48.286;8.484;2023-03-25T11:31:04;93598.69;;;9.05;100.00
39739;BME280;25422;48.286;8.484;2023-03-25T11:33:30;93584.25;;;9.71;100.00
39739;BME280;25422;48.286;8.484;2023-03-25T11:36:09;93583.06;;;9.73;100.00
39739;BME280;25422;48.286;8.484;2023-03-25T11:38:37;93587.59;;;10.24;94.60
39739;BME280;25422;48.286;8.484;2023-03-25T11:41:04;93576.78;;;10.42;92.65
39739;BME280;25422;48.286;8.484;2023-03-25T11:43:36;93551.00;;;10.76;96.89
39739;BME280;25422;48.286;8.484;2023-03-25T11:46:09;93568.88;;;11.16;85.01
39739;BME280;25422;48.286;8.484;2023-03-25T11:48:37;93567.75;;;11.25;85.05
39739;BME280;25422;48.286;8.484;2023-03-25T11:51:10;93556.03;;;11.21;78.69
39739;BME280;25422;48.286;8.484;2023-03-25T11:53:37;93559.09;;;11.53;78.49
39739;BME280;25422;48.286;8.484;2023-03-25T11:56:15;93563.47;;;11.45;76.80
39739;BME280;25422;48.286;8.484;2023-03-25T11:58:44;93570.75;;;11.50;74.65
39739;BME280;25422;48.286;8.484;2023-03-25T12:01:24;93576.06;;;12.20;72.10
39739;BME280;25422;48.286;8.484;2023-03-25T12:03:50;93600.63;;;11.56;75.31
39739;BME280;25422;48.286;8.484;2023-03-25T12:06:19;93586.44;;;12.00;73.71
39739;BME280;25422;48.286;8.484;2023-03-25T12:08:59;93593.97;;;11.81;79.65
39739;BME280;25422;48.286;8.484;2023-03-25T12:11:32;93607.03;;;11.03;84.43
39739;BME280;25422;48.286;8.484;2023-03-25T12:17:03;93586.63;;;11.70;81.30
39739;BME280;25422;48.286;8.484;2023-03-25T12:19:54;93597.06;;;11.92;79.55
39739;BME280;25422;48.286;8.484;2023-03-25T12:28:27;93579.69;;;11.91;81.11
39739;BME280;25422;48.286;8.484;2023-03-25T12:37:19;93586.41;;;10.57;88.30
39739;BME280;25422;48.286;8.484;2023-03-25T12:39:55;93585.50;;;10.86;100.00
39739;BME280;25422;48.286;8.484;2023-03-25T12:47:55;93579.28;;;11.30;86.88
39739;BME280;25422;48.286;8.484;2023-03-25T12:58:40;93591.09;;;11.98;82.30
39739;BME280;25422;48.286;8.484;2023-03-25T13:07:17;93600.19;;;10.51;90.29
39739;BME280;25422;48.286;8.484;2023-03-25T13:12:58;93599.66;;;10.10;100.00
39739;BME280;25422;48.286;8.484;2023-03-25T13:15:39;93598.75;;;10.03;100.00
39739;BME280;25422;48.286;8.484;2023-03-25T13:18:14;93591.91;;;10.02;100.00
39739;BME280;25422;48.286;8.484;2023-03-25T13:20:47;93588.91;;;10.65;93.68
39739;BME280;25422;48.286;8.484;2023-03-25T13:23:19;93580.97;;;11.17;92.49
39739;BME280;25422;48.286;8.484;2023-03-25T13:25:49;93563.81;;;10.71;91.42
39739;BME280;25422;48.286;8.484;2023-03-25T13:28:43;93567.47;;;10.25;92.58
39739;BME280;25422;48.286;8.484;2023-03-25T13:31:18;93570.66;;;10.05;94.67
39739;BME280;25422;48.286;8.484;2023-03-25T13:33:46;93573.72;;;10.09;100.00
39739;BME280;25422;48.286;8.484;2023-03-25T13:36:33;93581.91;;;9.00;100.00
39739;BME280;25422;48.286;8.484;2023-03-25T13:39:06;93583.56;;;8.38;100.00
39739;BME280;25422;48.286;8.484;2023-03-25T13:42:23;93589.03;;;7.47;100.00
39739;BME280;25422;48.286;8.484;2023-03-25T13:44:34;93584.50;;;6.83;100.00
39739;BME280;25422;48.286;8.484;2023-03-25T13:47:14;93610.06;;;6.29;100.00
39739;BME280;25422;48.286;8.484;2023-03-25T13:53:03;93638.44;;;5.17;100.00
39739;BME280;25422;48.286;8.484;2023-03-25T13:55:35;93631.28;;;5.37;100.00
39739;BME280;25422;48.286;8.484;2023-03-25T14:03:49;93617.94;;;5.84;100.00
39739;BME280;25422;48.286;8.484;2023-03-25T14:06:37;93615.63;;;5.99;100.00
39739;BME280;25422;48.286;8.484;2023-03-25T14:12:20;93623.69;;;7.15;100.00
39739;BME280;25422;48.286;8.484;2023-03-25T14:15:12;93633.44;;;7.62;100.00
39739;BME280;25422;48.286;8.484;2023-03-25T14:17:40;93627.88;;;7.90;100.00
39739;BME280;25422;48.286;8.484;2023-03-25T14:20:11;93623.78;;;7.96;100.00
39739;BME280;25422;48.286;8.484;2023-03-25T14:22:42;93611.50;;;8.21;100.00
39739;BME280;25422;48.286;8.484;2023-03-25T14:25:27;93612.22;;;8.38;100.00
39739;BME280;25422;48.286;8.484;2023-03-25T14:27:53;93591.44;;;8.61;100.00
39739;BME280;25422;48.286;8.484;2023-03-25T14:30:26;93591.69;;;8.74;100.00
39739;BME280;25422;48.286;8.484;2023-03-25T14:32:56;93595.41;;;8.80;100.00
39739;BME280;25422;48.286;8.484;2023-03-25T14:43:25;93603.03;;;8.19;100.00
39739;BME280;25422;48.286;8.484;2023-03-25T14:46:26;93595.84;;;7.73;100.00
39739;BME280;25422;48.286;8.484;2023-03-25T14:51:41;93568.44;;;7.93;100.00
39739;BME280;25422;48.286;8.484;2023-03-25T14:54:18;93572.22;;;7.74;100.00
39739;BME280;25422;48.286;8.484;2023-03-25T14:59:28;93634.44;;;7.03;100.00
39739;BME280;25422;48.286;8.484;2023-03-25T15:02:02;93640.13;;;7.07;100.00
39739;BME280;25422;48.286;8.484;2023-03-25T15:04:36;93650.72;;;7.14;100.00
39739;BME280;25422;48.286;8.484;2023-03-25T15:07:03;93648.44;;;7.27;100.00
39739;BME280;25422;48.286;8.484;2023-03-25T15:09:51;93645.00;;;7.43;100.00
39739;BME280;25422;48.286;8.484;2023-03-25T15:12:22;93655.13;;;7.46;100.00
39739;BME280;25422;48.286;8.484;2023-03-25T15:14:54;93639.28;;;7.72;100.00
39739;BME280;25422;48.286;8.484;2023-03-25T15:17:50;93643.97;;;7.85;100.00